Time;durP1;ratioP1;P1;durP2;ratioP2;P2;SDS_P1;SDS_P2;PMS_P1;PMS_P2;Temp;Humidity;BMP_temperature;BMP_pressure;BME280_temperature;BME280_humidity;BME280_pressure;Samples;Min_cycle;Max_cycle;Signal;HPM_P1;HPM_P2
2021/04/21 00:00:20;;;;;;;20.17;9.32;;;8.70;99.90;;;;;;5034420;28;20091;-65
2021/04/21 00:02:51;;;;;;;16.42;9.20;;;8.70;99.90;;;;;;5033760;28;20088;-65
2021/04/21 00:05:19;;;;;;;16.52;9.00;;;8.60;99.90;;;;;;5034122;28;20489;-65
2021/04/21 00:07:47;;;;;;;19.17;9.52;;;8.60;99.90;;;;;;5034912;28;20037;-65
2021/04/21 00:10:14;;;;;;;16.85;9.65;;;8.60;99.90;;;;;;5035342;28;20072;-65
2021/04/21 00:12:40;;;;;;;17.38;9.23;;;8.50;99.90;;;;;;5035131;28;20087;-65
2021/04/21 00:15:13;;;;;;;15.90;9.50;;;8.50;99.90;;;;;;5034987;28;20489;-64
2021/04/21 00:17:48;;;;;;;17.35;9.70;;;8.50;99.90;;;;;;5033906;28;20045;-64
2021/04/21 00:20:15;;;;;;;17.55;10.18;;;8.40;99.90;;;;;;5033849;28;20053;-64
2021/04/21 00:22:43;;;;;;;21.00;10.18;;;8.50;99.90;;;;;;5033694;28;20061;-65
2021/04/21 00:25:13;;;;;;;19.08;10.00;;;8.70;99.90;;;;;;5033957;28;20569;-65
2021/04/21 00:27:41;;;;;;;18.98;9.65;;;8.80;99.90;;;;;;5033585;28;20037;-65
2021/04/21 00:30:11;;;;;;;21.02;10.70;;;9.00;99.90;;;;;;5035111;28;20032;-65
2021/04/21 00:32:47;;;;;;;24.42;11.32;;;9.00;99.90;;;;;;5033343;28;20445;-65
2021/04/21 00:35:22;;;;;;;18.30;10.60;;;9.00;99.90;;;;;;5034845;28;20037;-65
2021/04/21 00:37:52;;;;;;;18.13;9.98;;;9.00;99.90;;;;;;5033532;28;20033;-65
2021/04/21 00:40:27;;;;;;;16.95;9.88;;;9.00;99.90;;;;;;5033757;28;20037;-65
2021/04/21 00:43:10;;;;;;;21.15;10.57;;;8.90;99.90;;;;;;5033486;28;20025;-65
2021/04/21 00:45:46;;;;;;;17.75;9.95;;;8.70;99.90;;;;;;5034655;28;20033;-65
2021/04/21 00:48:39;;;;;;;17.67;9.27;;;8.50;99.90;;;;;;5033494;28;20034;-64
2021/04/21 00:51:12;;;;;;;19.77;10.40;;;8.40;99.90;;;;;;5034668;28;20030;-65
2021/04/21 00:53:49;;;;;;;18.45;11.10;;;8.30;99.90;;;;;;5033340;28;20030;-65
2021/04/21 00:56:36;;;;;;;21.70;9.80;;;8.30;99.90;;;;;;5033425;28;20112;-65
2021/04/21 00:59:31;;;;;;;20.50;9.93;;;8.20;99.90;;;;;;5015805;28;20026;-65
2021/04/21 01:01:59;;;;;;;17.98;9.20;;;8.20;99.90;;;;;;5033234;28;20072;-65
2021/04/21 01:04:25;;;;;;;14.82;8.63;;;8.20;99.90;;;;;;5033089;28;20132;-65
2021/04/21 01:06:54;;;;;;;16.33;9.43;;;8.20;99.90;;;;;;5032848;28;20029;-65
2021/04/21 01:09:24;;;;;;;14.85;8.35;;;8.20;99.90;;;;;;5016612;28;20083;-65
2021/04/21 01:12:05;;;;;;;14.73;8.88;;;8.10;99.90;;;;;;5032493;28;20029;-65
2021/04/21 01:14:37;;;;;;;14.90;9.00;;;8.20;99.90;;;;;;5034258;28;20029;-65
2021/04/21 01:17:10;;;;;;;14.05;8.63;;;8.00;99.90;;;;;;5034085;28;20045;-66
2021/04/21 01:19:42;;;;;;;15.50;8.88;;;8.10;99.90;;;;;;5033660;28;20044;-65
2021/04/21 01:22:22;;;;;;;15.10;8.52;;;8.20;99.90;;;;;;5016320;28;20041;-64
2021/04/21 01:25:29;;;;;;;18.23;9.00;;;8.30;99.90;;;;;;5017189;28;20482;-63
2021/04/21 01:28:11;;;;;;;15.02;8.00;;;8.30;99.90;;;;;;5010992;28;20069;-64
2021/04/21 01:30:42;;;;;;;14.85;8.40;;;8.30;99.90;;;;;;5032640;28;20470;-65
2021/04/21 01:33:16;;;;;;;18.05;8.88;;;8.20;99.90;;;;;;5016321;28;20064;-65
2021/04/21 01:36:02;;;;;;;14.80;8.13;;;7.70;99.90;;;;;;5016232;28;20425;-65
2021/04/21 01:38:31;;;;;;;18.15;9.73;;;7.30;99.90;;;;;;5033353;28;20442;-64
2021/04/21 01:41:03;;;;;;;15.15;8.27;;;7.40;99.90;;;;;;5015798;28;20124;-64
2021/04/21 01:43:41;;;;;;;16.52;7.68;;;7.50;99.90;;;;;;5016118;28;20037;-65
2021/04/21 01:46:09;;;;;;;13.50;8.38;;;7.60;99.90;;;;;;5015838;28;20094;-64
2021/04/21 01:48:35;;;;;;;14.25;7.80;;;7.60;99.90;;;;;;5032160;28;20034;-65
2021/04/21 01:51:09;;;;;;;15.05;7.65;;;7.50;99.90;;;;;;5033332;28;20032;-65
2021/04/21 01:53:50;;;;;;;13.10;7.72;;;7.40;99.90;;;;;;5032179;28;20025;-65
2021/04/21 01:56:26;;;;;;;17.07;8.33;;;7.00;99.90;;;;;;5033354;28;20042;-65
2021/04/21 01:59:07;;;;;;;12.45;7.75;;;7.10;99.90;;;;;;5031602;28;20398;-65
2021/04/21 02:02:01;;;;;;;15.45;8.48;;;7.00;99.90;;;;;;5033563;28;20037;-65
2021/04/21 02:04:58;;;;;;;15.45;8.88;;;6.80;99.90;;;;;;5013347;28;20039;-64
2021/04/21 02:07:51;;;;;;;14.52;8.43;;;6.90;99.90;;;;;;5032912;28;20044;-64
2021/04/21 02:10:58;;;;;;;16.83;7.93;;;7.00;99.90;;;;;;5010819;28;20497;-65
2021/04/21 02:13:51;;;;;;;15.32;8.40;;;7.10;99.90;;;;;;5033120;28;20368;-64
2021/04/21 02:16:27;;;;;;;16.42;9.15;;;7.20;99.90;;;;;;5033132;28;20041;-65
2021/04/21 02:18:52;;;;;;;18.80;10.18;;;7.30;99.90;;;;;;5032766;28;20432;-64
2021/04/21 02:21:46;;;;;;;20.42;10.82;;;7.40;99.90;;;;;;5014834;28;20076;-64
2021/04/21 02:25:09;;;;;;;19.92;10.10;;;7.50;99.90;;;;;;5032870;28;20034;-65
2021/04/21 02:28:03;;;;;;;20.70;11.27;;;7.70;99.90;;;;;;5032818;28;20034;-64
2021/04/21 02:31:05;;;;;;;19.90;10.88;;;7.90;99.90;;;;;;5015181;28;20031;-65
2021/04/21 02:33:54;;;;;;;18.23;9.52;;;8.10;99.90;;;;;;5001366;28;20521;-65
2021/04/21 02:36:40;;;;;;;21.20;11.02;;;8.10;99.90;;;;;;5016164;28;20383;-64
2021/04/21 02:39:41;;;;;;;18.80;10.27;;;8.20;99.90;;;;;;5032134;28;20033;-64
2021/04/21 02:42:39;;;;;;;18.67;9.90;;;8.20;99.90;;;;;;5032716;28;20121;-65
2021/04/21 02:45:26;;;;;;;20.27;10.20;;;8.10;99.90;;;;;;4996704;28;20037;-64
2021/04/21 02:48:15;;;;;;;16.75;9.43;;;8.00;99.90;;;;;;5032412;28;20033;-65
2021/04/21 02:51:26;;;;;;;14.20;8.70;;;7.70;99.90;;;;;;5032655;28;20030;-65
2021/04/21 02:54:04;;;;;;;;;;;7.60;99.90;;;;;;4981610;28;20456;-65
2021/04/21 02:56:41;;;;;;;14.50;8.18;;;7.30;99.90;;;;;;4999648;28;19913;-65
2021/04/21 02:59:35;;;;;;;15.00;8.48;;;7.20;99.90;;;;;;5032295;28;20490;-65
2021/04/21 03:02:33;;;;;;;14.65;8.43;;;7.10;99.90;;;;;;5032309;28;20033;-64
2021/04/21 03:05:21;;;;;;;16.77;9.25;;;7.10;99.90;;;;;;5009711;28;20393;-65
2021/04/21 03:08:12;;;;;;;20.88;11.18;;;7.10;99.90;;;;;;5032146;28;20053;-66
2021/04/21 03:11:05;;;;;;;18.23;9.63;;;7.10;99.90;;;;;;5031359;28;20389;-65
2021/04/21 03:13:37;;;;;;;20.85;10.73;;;7.20;99.90;;;;;;5032267;28;20033;-65
2021/04/21 03:16:16;;;;;;;21.45;11.57;;;7.20;99.90;;;;;;5031013;28;20026;-67
2021/04/21 03:18:45;;;;;;;19.60;10.90;;;7.10;99.90;;;;;;5031030;28;20112;-66
2021/04/21 03:21:24;;;;;;;20.52;10.02;;;7.10;99.90;;;;;;5026832;28;20438;-66
2021/04/21 03:24:16;;;;;;;21.92;11.80;;;7.20;99.90;;;;;;5026994;28;20030;-66
2021/04/21 03:26:47;;;;;;;22.00;11.38;;;7.20;99.90;;;;;;5012414;28;20081;-65
2021/04/21 03:29:19;;;;;;;21.75;11.57;;;7.10;99.90;;;;;;5019415;28;20029;-66
2021/04/21 03:31:46;;;;;;;;;;;7.10;99.90;;;;;;5027929;28;20113;-66
2021/04/21 03:34:17;;;;;;;24.98;12.25;;;7.00;99.90;;;;;;5013046;28;19917;-66
2021/04/21 03:36:44;;;;;;;;;;;6.90;99.90;;;;;;5031622;28;20030;-65
2021/04/21 03:39:11;;;;;;;21.02;11.73;;;6.90;99.90;;;;;;5016017;28;19917;-66
2021/04/21 03:41:38;;;;;;;23.48;11.35;;;6.70;99.90;;;;;;5016143;28;20437;-66
2021/04/21 03:44:06;;;;;;;23.75;11.27;;;6.70;99.90;;;;;;5015844;28;20030;-66
2021/04/21 03:46:33;;;;;;;18.48;11.77;;;6.60;99.90;;;;;;5031202;28;20496;-65
2021/04/21 03:49:00;;;;;;;21.45;12.25;;;6.60;99.90;;;;;;5015658;28;20172;-65
2021/04/21 03:51:28;;;;;;;21.90;11.57;;;6.70;99.90;;;;;;5015879;28;20494;-65
2021/04/21 03:53:54;;;;;;;20.20;11.60;;;6.70;99.90;;;;;;5015258;28;20026;-65
2021/04/21 03:56:26;;;;;;;19.40;11.52;;;6.80;99.90;;;;;;5030541;28;20026;-65
2021/04/21 03:58:55;;;;;;;20.90;12.02;;;6.80;99.90;;;;;;4998068;28;20505;-65
2021/04/21 04:01:24;;;;;;;21.65;11.50;;;6.80;99.90;;;;;;5016222;28;20038;-67
2021/04/21 04:04:01;;;;;;;23.05;12.95;;;6.80;99.90;;;;;;5034264;28;20057;-69
2021/04/21 04:06:46;;;;;;;23.73;12.50;;;6.80;99.90;;;;;;5033661;28;20418;-67
2021/04/21 04:09:16;;;;;;;22.63;12.15;;;6.70;99.90;;;;;;5049989;28;20401;-66
2021/04/21 04:11:50;;;;;;;23.25;12.02;;;6.60;99.90;;;;;;5017649;28;20037;-71
2021/04/21 04:14:19;;;;;;;25.90;12.40;;;6.50;99.90;;;;;;5050033;28;20033;-69
2021/04/21 04:16:50;;;;;;;21.77;11.55;;;6.50;99.90;;;;;;5050303;28;20482;-70
2021/04/21 04:19:17;;;;;;;21.55;10.73;;;6.40;99.90;;;;;;5035352;28;20029;-68
2021/04/21 04:21:51;;;;;;;20.45;10.75;;;6.20;99.90;;;;;;5053299;28;20564;-70
2021/04/21 04:24:21;;;;;;;21.73;11.35;;;6.20;99.90;;;;;;5053608;28;20039;-69
2021/04/21 04:26:49;;;;;;;20.45;10.63;;;6.00;99.90;;;;;;5053682;28;20033;-68
2021/04/21 04:29:16;;;;;;;23.33;11.38;;;6.00;99.90;;;;;;5053178;28;20031;-69
2021/04/21 04:31:42;;;;;;;23.02;13.05;;;6.00;99.90;;;;;;5053675;28;20039;-68
2021/04/21 04:34:10;;;;;;;27.00;13.70;;;6.00;99.90;;;;;;5054726;28;20061;-68
2021/04/21 04:36:40;;;;;;;26.75;13.57;;;6.00;99.90;;;;;;5054504;28;20031;-68
2021/04/21 04:39:09;;;;;;;24.57;13.13;;;5.90;99.90;;;;;;5054625;28;20040;-68
2021/04/21 04:41:37;;;;;;;30.65;14.38;;;5.90;99.90;;;;;;5054440;28;20283;-69
2021/04/21 04:44:06;;;;;;;28.42;14.35;;;6.00;99.90;;;;;;5054026;28;20394;-68
2021/04/21 04:46:41;;;;;;;27.17;14.93;;;6.20;99.90;;;;;;5053296;28;20033;-68
2021/04/21 04:49:15;;;;;;;25.92;13.77;;;6.30;99.90;;;;;;5054321;28;20032;-67
2021/04/21 04:51:46;;;;;;;22.77;12.77;;;6.40;99.90;;;;;;5053318;28;20119;-70
2021/04/21 04:54:15;;;;;;;27.52;13.40;;;6.20;99.90;;;;;;5042600;28;20029;-71
2021/04/21 04:56:45;;;;;;;24.38;13.25;;;6.30;99.90;;;;;;5034486;28;20386;-68
2021/04/21 04:59:13;;;;;;;23.10;12.38;;;6.40;99.90;;;;;;5034434;28;20038;-66
2021/04/21 05:01:57;;;;;;;40.38;18.77;;;6.50;99.90;;;;;;5034064;28;20060;-70
2021/04/21 05:04:39;;;;;;;23.58;12.43;;;6.70;99.90;;;;;;5030037;28;20051;-50
2021/04/21 05:07:08;;;;;;;27.58;12.85;;;6.60;99.90;;;;;;5014233;28;20394;-47
2021/04/21 05:09:42;;;;;;;27.45;13.15;;;6.40;99.90;;;;;;5014500;28;20030;-45
2021/04/21 05:12:13;;;;;;;23.50;13.68;;;6.20;99.90;;;;;;5029098;28;20098;-49
2021/04/21 05:14:42;;;;;;;26.27;13.25;;;6.10;99.90;;;;;;5034152;28;20561;-69
2021/04/21 05:18:05;;;;;;;26.05;13.57;;;6.00;99.90;;;;;;5033699;28;20095;-69
2021/04/21 05:21:28;;;;;;;30.23;12.30;;;6.20;99.90;;;;;;4985054;28;20522;-69
2021/04/21 05:24:27;;;;;;;33.92;16.42;;;6.40;99.90;;;;;;4975216;28;20039;-70
2021/04/21 05:27:29;;;;;;;41.97;22.30;;;6.50;99.90;;;;;;4974105;28;20034;-69
2021/04/21 05:30:32;;;;;;;32.22;13.57;;;6.60;99.90;;;;;;4974890;28;20035;-70
2021/04/21 05:33:36;;;;;;;29.77;13.57;;;6.70;99.90;;;;;;4975123;28;20496;-69
2021/04/21 05:36:14;;;;;;;22.40;13.35;;;6.80;99.90;;;;;;4974774;28;20042;-70
2021/04/21 05:39:53;;;;;;;24.35;13.73;;;6.90;99.90;;;;;;4974914;28;20027;-71
2021/04/21 05:42:56;;;;;;;25.35;13.27;;;7.10;99.90;;;;;;4972032;28;20089;-71
2021/04/21 05:45:59;;;;;;;19.98;11.88;;;7.20;99.90;;;;;;4974634;28;20049;-70
2021/04/21 05:49:24;;;;;;;22.88;11.25;;;7.30;99.90;;;;;;4974530;28;20066;-69
2021/04/21 05:52:38;;;;;;;21.38;12.75;;;7.50;99.90;;;;;;4973331;28;20070;-69
2021/04/21 05:56:00;;;;;;;24.70;12.95;;;7.50;99.90;;;;;;4977687;28;20370;-70
2021/04/21 05:59:01;;;;;;;24.10;13.23;;;7.60;99.90;;;;;;4976982;28;20031;-70
2021/04/21 06:01:40;;;;;;;;;;;7.80;99.90;;;;;;4974906;28;20178;-69
2021/04/21 06:04:06;;;;;;;25.88;12.48;;;7.90;99.90;;;;;;4988880;28;19914;-69
2021/04/21 06:06:31;;;;;;;30.13;13.80;;;8.00;99.90;;;;;;4974294;28;20495;-69
2021/04/21 06:09:07;;;;;;;25.65;13.32;;;8.00;99.90;;;;;;4974216;28;20041;-70
2021/04/21 06:11:33;;;;;;;25.65;14.95;;;8.10;99.90;;;;;;4974276;28;20053;-69
2021/04/21 06:14:03;;;;;;;26.85;14.88;;;8.10;99.90;;;;;;4974073;28;20035;-69
2021/04/21 06:16:31;;;;;;;29.85;14.98;;;8.20;99.90;;;;;;4973866;28;20030;-68
2021/04/21 06:19:08;;;;;;;24.90;13.93;;;8.30;99.90;;;;;;4973932;28;20039;-69
2021/04/21 06:21:40;;;;;;;27.92;14.43;;;8.30;99.90;;;;;;4973819;28;20039;-69
2021/04/21 06:24:29;;;;;;;27.15;14.27;;;8.40;99.90;;;;;;4993383;28;20038;-68
2021/04/21 06:27:12;;;;;;;28.60;15.02;;;8.60;99.90;;;;;;4993302;28;20463;-69
2021/04/21 06:29:40;;;;;;;25.42;14.80;;;8.60;99.90;;;;;;4993353;28;20027;-69
2021/04/21 06:32:13;;;;;;;24.92;14.25;;;8.70;99.90;;;;;;4992955;28;20133;-69
2021/04/21 06:34:39;;;;;;;26.63;14.45;;;8.70;99.90;;;;;;4993287;28;20038;-68
2021/04/21 06:37:05;;;;;;;25.23;14.05;;;8.70;99.90;;;;;;5008213;28;20102;-69
2021/04/21 06:39:32;;;;;;;25.15;13.98;;;8.80;99.90;;;;;;5000476;28;20030;-68
2021/04/21 06:42:01;;;;;;;27.35;14.77;;;8.90;99.90;;;;;;5012750;28;20053;-70
2021/04/21 06:44:45;;;;;;;34.22;15.43;;;8.90;99.90;;;;;;5012768;28;20431;-70
2021/04/21 06:47:20;;;;;;;31.42;14.20;;;9.00;99.90;;;;;;5012485;28;20044;-70
2021/04/21 06:50:05;;;;;;;31.98;14.20;;;9.20;99.90;;;;;;5012777;28;20034;-69
2021/04/21 06:52:39;;;;;;;27.90;14.85;;;9.30;99.90;;;;;;5012687;28;20030;-68
2021/04/21 06:55:23;;;;;;;24.80;14.77;;;9.40;99.90;;;;;;5012224;28;20080;-69
2021/04/21 06:57:48;;;;;;;23.02;13.10;;;9.50;99.90;;;;;;5012577;28;20069;-69
2021/04/21 07:00:19;;;;;;;23.48;13.07;;;9.60;99.90;;;;;;4994726;28;20161;-69
2021/04/21 07:02:47;;;;;;;30.13;14.20;;;9.70;99.90;;;;;;5012589;28;20537;-69
2021/04/21 07:05:38;;;;;;;29.08;14.00;;;9.90;99.90;;;;;;5012219;28;20041;-69
2021/04/21 07:08:27;;;;;;;25.50;13.68;;;9.90;99.90;;;;;;5012451;28;20030;-68
2021/04/21 07:10:58;;;;;;;24.58;14.70;;;10.00;99.90;;;;;;5016404;28;20483;-68
2021/04/21 07:13:44;;;;;;;24.45;13.43;;;10.10;99.90;;;;;;5014608;28;20031;-69
2021/04/21 07:16:27;;;;;;;44.70;24.00;;;10.10;99.90;;;;;;5010572;28;20133;-68
2021/04/21 07:18:57;;;;;;;33.92;19.17;;;10.20;99.90;;;;;;5011587;28;20026;-69
2021/04/21 07:21:24;;;;;;;28.70;15.35;;;10.40;99.90;;;;;;5011193;28;20143;-69
2021/04/21 07:23:58;;;;;;;26.05;15.52;;;10.30;99.90;;;;;;4996689;28;20039;-69
2021/04/21 07:26:37;;;;;;;24.95;14.15;;;10.50;99.90;;;;;;4996203;28;20040;-70
2021/04/21 07:29:06;;;;;;;26.42;14.05;;;10.60;99.90;;;;;;5011016;28;20113;-69
2021/04/21 07:31:37;;;;;;;26.23;13.50;;;10.80;99.90;;;;;;4994866;28;20576;-69
2021/04/21 07:34:03;;;;;;;24.15;13.35;;;10.90;99.90;;;;;;4996448;28;20572;-70
2021/04/21 07:36:29;;;;;;;23.42;13.43;;;11.10;99.90;;;;;;4996072;28;20610;-68
2021/04/21 07:39:07;;;;;;;25.95;13.60;;;11.00;99.90;;;;;;4996483;28;20062;-68
2021/04/21 07:41:59;;;;;;;24.38;14.40;;;11.10;99.90;;;;;;5010396;28;20062;-70
2021/04/21 07:44:48;;;;;;;24.73;13.48;;;11.30;99.90;;;;;;4994157;28;20185;-68
2021/04/21 07:47:14;;;;;;;25.90;13.68;;;11.30;99.90;;;;;;5010981;28;20466;-68
2021/04/21 07:49:59;;;;;;;23.55;12.88;;;11.40;99.90;;;;;;4996263;28;20030;-69
2021/04/21 07:52:27;;;;;;;25.73;13.82;;;11.60;99.90;;;;;;4994337;28;20118;-69
2021/04/21 07:55:13;;;;;;;23.15;13.13;;;11.80;99.90;;;;;;4996178;28;20114;-69
2021/04/21 07:57:44;;;;;;;23.63;13.30;;;11.90;99.90;;;;;;4998656;28;20035;-69
2021/04/21 08:00:23;;;;;;;23.63;13.50;;;12.20;99.90;;;;;;4978956;28;20476;-69
2021/04/21 08:02:50;;;;;;;22.35;12.52;;;12.30;99.90;;;;;;4995989;28;20038;-69
2021/04/21 08:05:17;;;;;;;28.08;13.40;;;12.40;99.90;;;;;;5010451;28;20030;-68
2021/04/21 08:07:56;;;;;;;30.50;16.70;;;12.50;99.90;;;;;;4993870;28;20037;-69
2021/04/21 08:10:22;;;;;;;22.58;13.32;;;12.70;99.90;;;;;;5030628;28;20486;-69
2021/04/21 08:12:50;;;;;;;27.15;13.57;;;12.80;99.90;;;;;;5015367;28;20061;-68
2021/04/21 08:15:17;;;;;;;22.45;11.93;;;12.90;99.90;;;;;;5015244;28;20034;-70
2021/04/21 08:18:08;;;;;;;26.52;12.57;;;12.80;99.90;;;;;;5015263;28;20041;-68
2021/04/21 08:20:38;;;;;;;21.33;13.00;;;13.00;99.90;;;;;;5014809;28;20068;-69
2021/04/21 08:23:08;;;;;;;25.80;13.40;;;13.00;99.90;;;;;;5015254;28;20048;-68
2021/04/21 08:25:35;;;;;;;21.42;12.15;;;13.10;99.90;;;;;;5015219;28;20030;-68
2021/04/21 08:28:02;;;;;;;18.95;10.80;;;13.30;99.90;;;;;;5015070;28;20059;-68
2021/04/21 08:30:30;;;;;;;22.48;12.18;;;13.50;99.90;;;;;;5030302;28;20021;-69
2021/04/21 08:32:56;;;;;;;29.58;16.90;;;13.60;99.90;;;;;;5015057;28;20042;-68
2021/04/21 08:35:23;;;;;;;21.88;12.52;;;13.90;99.90;;;;;;5030026;28;20026;-68
2021/04/21 08:37:49;;;;;;;19.30;11.30;;;14.00;99.90;;;;;;5014201;28;20033;-69
2021/04/21 08:40:23;;;;;;;16.90;10.77;;;14.10;99.90;;;;;;4996563;28;20022;-69
2021/04/21 08:42:59;;;;;;;21.30;10.48;;;14.20;99.90;;;;;;5014173;28;20060;-69
2021/04/21 08:45:25;;;;;;;21.38;11.30;;;14.40;99.90;;;;;;5014714;28;20030;-70
2021/04/21 08:47:54;;;;;;;19.00;10.32;;;14.40;99.90;;;;;;5014319;28;20054;-69
2021/04/21 08:50:21;;;;;;;16.75;10.20;;;14.60;99.90;;;;;;5029227;28;20026;-69
2021/04/21 08:52:56;;;;;;;18.60;10.38;;;14.80;99.90;;;;;;5029818;28;20064;-69
2021/04/21 08:55:27;;;;;;;18.80;11.52;;;14.90;99.90;;;;;;5014489;28;20073;-69
2021/04/21 08:57:53;;;;;;;21.27;10.55;;;15.00;99.90;;;;;;5014594;28;20037;-68
2021/04/21 09:00:21;;;;;;;17.90;10.30;;;15.20;99.50;;;;;;5029474;28;20100;-69
2021/04/21 09:02:47;;;;;;;19.90;10.30;;;15.20;99.90;;;;;;4996969;28;20037;-69
2021/04/21 09:05:16;;;;;;;19.65;10.10;;;15.30;98.80;;;;;;4996365;28;20030;-69
2021/04/21 09:07:43;;;;;;;20.10;10.50;;;15.40;99.00;;;;;;5014030;28;20084;-69
2021/04/21 09:10:17;;;;;;;17.30;11.02;;;15.40;98.70;;;;;;5013878;28;20369;-69
2021/04/21 09:12:43;;;;;;;20.98;10.10;;;15.50;98.70;;;;;;5014216;28;20022;-68
2021/04/21 09:15:12;;;;;;;14.93;8.85;;;15.60;98.60;;;;;;5014149;28;20041;-69
2021/04/21 09:17:50;;;;;;;19.98;9.70;;;15.70;97.80;;;;;;4996284;28;20506;-69
2021/04/21 09:20:19;;;;;;;18.45;9.18;;;15.80;97.80;;;;;;5013726;28;20050;-68
2021/04/21 09:23:14;;;;;;;13.70;8.90;;;15.80;97.50;;;;;;5014186;28;20065;-69
2021/04/21 09:25:53;;;;;;;14.40;8.75;;;16.00;98.30;;;;;;5013695;28;20391;-69
2021/04/21 09:28:23;;;;;;;14.48;8.50;;;16.30;97.30;;;;;;5013943;28;20034;-69
2021/04/21 09:30:58;;;;;;;17.90;8.23;;;16.50;97.00;;;;;;5013331;28;20026;-69
2021/04/21 09:33:29;;;;;;;13.85;8.80;;;16.80;95.60;;;;;;5013778;28;20095;-68
2021/04/21 09:35:56;;;;;;;15.65;9.38;;;16.90;95.10;;;;;;5013989;28;20479;-68
2021/04/21 09:38:29;;;;;;;13.07;8.45;;;16.90;95.80;;;;;;5028797;28;20037;-69
2021/04/21 09:40:58;;;;;;;13.73;8.40;;;17.10;94.50;;;;;;5013756;28;20069;-68
2021/04/21 09:43:35;;;;;;;14.15;8.85;;;17.20;93.90;;;;;;5013634;28;20030;-69
2021/04/21 09:46:16;;;;;;;13.52;7.90;;;17.50;94.20;;;;;;5013671;28;20061;-69
2021/04/21 09:48:45;;;;;;;12.02;7.32;;;17.50;94.60;;;;;;5013548;28;20069;-68
2021/04/21 09:51:17;;;;;;;15.60;8.52;;;17.70;92.90;;;;;;5013274;28;20034;-68
2021/04/21 09:53:49;;;;;;;15.43;7.95;;;17.80;93.00;;;;;;5013560;28;20034;-68
2021/04/21 09:56:20;;;;;;;13.02;7.40;;;18.00;92.40;;;;;;5012942;28;20044;-70
2021/04/21 09:58:55;;;;;;;13.95;7.28;;;17.90;91.50;;;;;;5013528;28;20387;-69
2021/04/21 10:01:26;;;;;;;14.70;7.38;;;18.20;88.90;;;;;;5012945;28;20112;-68
2021/04/21 10:04:10;;;;;;;13.73;7.25;;;18.30;87.20;;;;;;5012213;28;20491;-69
2021/04/21 10:06:40;;;;;;;13.25;7.35;;;18.00;85.70;;;;;;5013106;28;20129;-69
2021/04/21 10:09:26;;;;;;;10.93;6.75;;;18.20;84.70;;;;;;4979215;28;20398;-68
2021/04/21 10:12:13;;;;;;;14.40;7.30;;;18.30;84.50;;;;;;5013056;28;20034;-68
2021/04/21 10:14:40;;;;;;;11.00;7.20;;;18.00;84.10;;;;;;5011675;28;20121;-71
2021/04/21 10:17:07;;;;;;;12.38;6.80;;;18.30;88.30;;;;;;4995359;28;20108;-68
2021/04/21 10:19:34;;;;;;;16.08;7.60;;;18.70;85.50;;;;;;5012718;28;20041;-67
2021/04/21 10:22:01;;;;;;;14.32;6.72;;;19.00;83.10;;;;;;5013173;28;20034;-66
2021/04/21 10:24:28;;;;;;;12.60;7.32;;;19.00;84.00;;;;;;5012820;28;20033;-66
2021/04/21 10:26:56;;;;;;;12.35;7.13;;;19.20;81.60;;;;;;5012853;28;20120;-67
2021/04/21 10:29:25;;;;;;;16.42;8.45;;;19.20;81.10;;;;;;5011660;28;20030;-67
2021/04/21 10:31:55;;;;;;;11.75;7.05;;;19.30;79.90;;;;;;5012976;28;20034;-69
2021/04/21 10:34:21;;;;;;;13.80;7.68;;;19.10;79.30;;;;;;5012706;28;20042;-65
2021/04/21 10:36:50;;;;;;;10.80;6.45;;;19.00;78.70;;;;;;5012741;28;20030;-65
2021/04/21 10:39:35;;;;;;;13.10;7.18;;;18.90;80.50;;;;;;5012689;28;20033;-66
2021/04/21 10:42:16;;;;;;;14.73;7.65;;;18.80;81.80;;;;;;5012818;28;20034;-67
2021/04/21 10:44:45;;;;;;;12.00;7.63;;;19.40;79.30;;;;;;5012701;28;20030;-66
2021/04/21 10:47:15;;;;;;;17.10;8.93;;;19.70;75.40;;;;;;5012616;28;20034;-67
2021/04/21 10:50:03;;;;;;;12.83;7.30;;;19.80;75.10;;;;;;5012712;28;20034;-65
2021/04/21 10:52:29;;;;;;;14.27;7.82;;;19.90;75.20;;;;;;5012396;28;20432;-71
2021/04/21 10:54:58;;;;;;;13.07;7.97;;;19.90;74.90;;;;;;5012522;28;20073;-69
2021/04/21 10:57:32;;;;;;;11.95;6.78;;;20.10;72.90;;;;;;5009225;28;20037;-69
2021/04/21 11:00:15;;;;;;;11.55;6.82;;;20.40;72.30;;;;;;5011001;28;20368;-68
2021/04/21 11:02:44;;;;;;;12.75;5.55;;;20.40;70.80;;;;;;4997899;28;20030;-68
2021/04/21 11:05:38;;;;;;;10.77;6.40;;;20.90;70.10;;;;;;5012372;28;20034;-67
2021/04/21 11:08:18;;;;;;;12.07;6.47;;;21.10;65.90;;;;;;5017256;28;20033;-67
2021/04/21 11:10:54;;;;;;;10.80;6.03;;;21.30;66.30;;;;;;4990196;28;20052;-67
2021/04/21 11:13:38;;;;;;;9.88;5.60;;;21.40;65.30;;;;;;4992592;28;20035;-68
2021/04/21 11:16:26;;;;;;;11.80;7.00;;;21.50;64.40;;;;;;4992359;28;20484;-66
2021/04/21 11:18:52;;;;;;;10.70;7.07;;;20.90;62.80;;;;;;4992525;28;20038;-66
2021/04/21 11:21:20;;;;;;;11.80;6.55;;;19.70;65.80;;;;;;4992156;28;20047;-65
2021/04/21 11:24:07;;;;;;;9.68;5.85;;;20.30;66.00;;;;;;4991496;28;20033;-67
2021/04/21 11:26:48;;;;;;;9.68;6.57;;;20.90;64.70;;;;;;4992393;28;20092;-65
2021/04/21 11:29:21;;;;;;;12.93;7.65;;;21.00;62.60;;;;;;4992795;28;20053;-66
2021/04/21 11:31:50;;;;;;;13.30;6.05;;;21.00;63.20;;;;;;4992556;28;20042;-66
2021/04/21 11:34:28;;;;;;;9.57;5.65;;;21.10;62.40;;;;;;4992278;28;20062;-66
2021/04/21 11:37:05;;;;;;;9.10;5.38;;;21.60;62.60;;;;;;4991479;28;20030;-66
2021/04/21 11:39:49;;;;;;;9.55;6.45;;;22.20;59.50;;;;;;4992642;28;20040;-66
2021/04/21 11:42:36;;;;;;;8.98;6.18;;;22.60;58.60;;;;;;4992229;28;20657;-67
2021/04/21 11:45:16;;;;;;;9.50;6.05;;;22.60;57.40;;;;;;4992307;28;20511;-66
2021/04/21 11:47:46;;;;;;;11.77;6.13;;;22.30;57.80;;;;;;4992390;28;20034;-66
2021/04/21 11:50:18;;;;;;;10.68;5.60;;;22.50;56.90;;;;;;4992460;28;20504;-66
2021/04/21 11:53:14;;;;;;;11.60;5.32;;;22.30;57.00;;;;;;4992316;28;20379;-66
2021/04/21 11:55:59;;;;;;;8.57;4.80;;;22.70;56.80;;;;;;4994071;28;20100;-66
2021/04/21 11:58:38;;;;;;;9.30;5.85;;;23.10;57.10;;;;;;5011894;28;20037;-67
2021/04/21 12:01:12;;;;;;;8.73;5.70;;;23.00;54.20;;;;;;5015652;28;20068;-66
2021/04/21 12:03:45;;;;;;;8.55;6.00;;;23.40;54.00;;;;;;5015597;28;20037;-66
2021/04/21 12:06:15;;;;;;;8.73;5.53;;;23.00;53.00;;;;;;5015548;28;20042;-66
2021/04/21 12:08:48;;;;;;;7.90;4.75;;;23.00;53.50;;;;;;5014424;28;20033;-65
2021/04/21 12:11:24;;;;;;;9.05;4.90;;;22.80;54.50;;;;;;5015499;28;20038;-66
2021/04/21 12:13:49;;;;;;;8.25;5.15;;;22.50;53.70;;;;;;5014308;28;20117;-67
2021/04/21 12:16:18;;;;;;;9.25;5.78;;;22.40;52.40;;;;;;5013847;28;20464;-65
2021/04/21 12:18:55;;;;;;;12.80;7.22;;;22.90;52.00;;;;;;5015305;28;20109;-66
2021/04/21 12:21:36;;;;;;;11.60;4.80;;;23.00;51.80;;;;;;5010164;28;20133;-66
2021/04/21 12:24:08;;;;;;;8.00;3.97;;;23.60;51.90;;;;;;4995601;28;20034;-65
2021/04/21 12:26:35;;;;;;;6.20;3.70;;;24.60;47.20;;;;;;4977761;28;20390;-66
2021/04/21 12:29:11;;;;;;;5.75;3.88;;;24.60;46.00;;;;;;4995638;28;20038;-66
2021/04/21 12:31:37;;;;;;;12.18;4.00;;;23.70;45.60;;;;;;4995690;28;20037;-66
2021/04/21 12:34:06;;;;;;;6.32;3.70;;;23.40;46.30;;;;;;4993634;28;20117;-66
2021/04/21 12:36:36;;;;;;;6.88;4.55;;;23.30;45.90;;;;;;4995291;28;20041;-65
2021/04/21 12:39:12;;;;;;;7.57;4.38;;;22.50;48.10;;;;;;4995479;28;20490;-65
2021/04/21 12:42:05;;;;;;;8.55;4.75;;;22.00;49.20;;;;;;4994721;28;20415;-64
2021/04/21 12:44:34;;;;;;;8.88;4.13;;;22.30;49.20;;;;;;4969026;28;20049;-66
2021/04/21 12:47:10;;;;;;;5.40;3.75;;;22.50;47.70;;;;;;5014718;28;20100;-66
2021/04/21 12:49:40;;;;;;;17.10;4.57;;;23.10;47.20;;;;;;5014680;28;20026;-66
2021/04/21 12:52:10;;;;;;;5.88;3.08;;;22.60;47.40;;;;;;5014754;28;20030;-66
2021/04/21 12:54:47;;;;;;;9.10;3.80;;;22.50;47.10;;;;;;5014425;28;20025;-65
2021/04/21 12:57:18;;;;;;;7.60;4.07;;;22.60;46.60;;;;;;5014676;28;20489;-66
2021/04/21 12:59:57;;;;;;;11.57;5.55;;;21.90;48.70;;;;;;5029831;28;20490;-66
2021/04/21 13:02:50;;;;;;;10.52;5.25;;;21.80;50.30;;;;;;5014290;28;20483;-66
2021/04/21 13:05:17;;;;;;;9.63;5.25;;;21.90;51.20;;;;;;5013757;28;20406;-66
2021/04/21 13:07:42;;;;;;;9.38;4.78;;;21.80;51.60;;;;;;5013613;28;20089;-66
2021/04/21 13:10:15;;;;;;;10.35;4.60;;;22.30;50.40;;;;;;5013324;28;20411;-65
2021/04/21 13:12:42;;;;;;;9.93;5.07;;;22.40;49.20;;;;;;5014139;28;20037;-66
2021/04/21 13:15:20;;;;;;;8.02;4.28;;;22.10;49.00;;;;;;4996777;28;20064;-65
2021/04/21 13:17:56;;;;;;;5.40;3.88;;;22.40;48.30;;;;;;5012847;28;20034;-65
2021/04/21 13:20:42;;;;;;;6.80;3.75;;;22.10;48.20;;;;;;5013771;28;20447;-66
2021/04/21 13:23:25;;;;;;;7.20;4.40;;;22.30;47.00;;;;;;5014025;28;20030;-66
2021/04/21 13:26:05;;;;;;;6.63;3.78;;;22.90;47.30;;;;;;5014024;28;20030;-67
2021/04/21 13:28:43;;;;;;;7.30;4.03;;;22.90;46.20;;;;;;5013653;28;20034;-67